Flight Track Log - Related Links

Times and Time Zones

All times are in EDT time to prevent confusion due to time zone crossing. See the GUG716 flight status page for this flight to view local times or setup timezone preferences in your user account.

Time Position Orientation Groundspeed Altitude Reporting Facility
EDT Latitude Longitude Course Direction KTS MPH feet Rate Location/Type
Tue 02:52:00 PM 12.5878 -87.1489 295° West  Level Estimated
Tue 02:53:00 PM 12.6140 -87.2067 295° West  Level Estimated
Tue 02:54:00 PM 12.6401 -87.2645 295° West  Level Estimated
Tue 02:55:00 PM 12.6662 -87.3223 295° West  Level Estimated
Tue 02:56:00 PM 12.6924 -87.3801 295° West  Level Estimated
Tue 02:57:00 PM 12.7184 -87.4380 295° West  Level Estimated
Tue 02:58:00 PM 12.7445 -87.4958 295° West  Level Estimated
Tue 02:59:00 PM 12.7706 -87.5537 295° West  Level Estimated
Tue 03:00:00 PM 12.7967 -87.6116 295° West  Level Estimated
Tue 03:01:00 PM 12.8227 -87.6695 295° West  Level Estimated
Tue 03:02:00 PM 12.8487 -87.7274 295° West  Level Estimated
Tue 03:03:00 PM 12.8748 -87.7853 295° West  Level Estimated
Tue 03:04:00 PM 12.9008 -87.8432 295° West  Level Estimated
Tue 03:05:00 PM 12.9268 -87.9012 295° West  Level Estimated
Tue 03:06:00 PM 12.9527 -87.9591 295° West  Level Estimated
Tue 03:07:00 PM 12.9787 -88.0171 295° West  Level Estimated
Tue 03:08:00 PM 13.0047 -88.0751 295° West  Level Estimated
Tue 03:09:00 PM 13.0306 -88.1330 295° West  Level Estimated
Tue 03:10:00 PM 13.0565 -88.1910 295° West  Level Estimated
Tue 03:11:00 PM 13.0825 -88.2490 295° West  Level Estimated
Tue 03:12:00 PM 13.1084 -88.3071 295° West  Level Estimated
Tue 03:13:00 PM 13.1343 -88.3651 295° West  Level Estimated
Tue 03:14:00 PM 13.1601 -88.4231 295° West  Level Estimated
Tue 03:15:00 PM 13.1860 -88.4812 295° West  Level Estimated
Tue 03:16:00 PM 13.2119 -88.5393 295° West  Level Estimated
Tue 03:17:00 PM 13.2377 -88.5974 295° West  Level Estimated
Tue 03:18:00 PM 13.2635 -88.6555 295° West  Level Estimated
Tue 03:19:00 PM 13.2893 -88.7136 295° West  Level Estimated
Tue 03:20:00 PM 13.3151 -88.7717 295° West  Level Estimated
Tue 03:21:00 PM 13.3409 -88.8298 295° West  Level Estimated
Tue 03:22:00 PM 13.3667 -88.8880 294° West  Level Estimated
Tue 03:23:00 PM 13.3925 -88.9461 294° West  Level Estimated
Tue 03:24:00 PM 13.4182 -89.0043 294° West  Level Estimated
Tue 03:25:00 PM 13.4410 -89.0557 294° West  Level Estimated
Tue 03:26:00 PM 13.4410 -89.0557 North  Level Estimated
Tue 03:27:00 PM 13.4410 -89.0557 North  Level Estimated
Tue 03:28:00 PM 13.4410 -89.0557 North  Level Estimated
Tue 03:29:00 PM 13.4410 -89.0557 North  Level Estimated
Tue 03:30:00 PM 13.4410 -89.0557 North  Level Estimated
Tue 03:31:00 PM 13.4410 -89.0557 North  Level Estimated
Tue 03:32:00 PM 13.4410 -89.0557 North  Level Estimated
Tue 03:33:00 PM 13.4410 -89.0557 North  Level Estimated
Tue 03:34:00 PM 13.4410 -89.0557 North  Level Estimated
Tue 03:35:00 PM 13.4410 -89.0557 North  Level Estimated
Tue 03:36:00 PM 13.4410 -89.0557 North  Level Estimated
Tue 03:37:00 PM 13.4410 -89.0557 North  Level Estimated
Tue 03:38:00 PM 13.4410 -89.0557 North  Level Estimated
Tue 03:39:00 PM 13.4410 -89.0557 North  Level Estimated
Tue 03:40:00 PM 13.4410 -89.0557 North  Level Estimated
Tue 03:41:00 PM 13.4410 -89.0557 North  Level Estimated

Login

Don't have an account? Register now (free) for customized features, flight alerts, and more!